createdAt,value
2023-01-18T00:01:06.533Z,4.97
2023-01-18T00:03:38.423Z,5.18
2023-01-18T00:06:10.049Z,4.24
2023-01-18T00:08:41.293Z,5.13
2023-01-18T00:11:15.534Z,4.75
2023-01-18T00:13:46.593Z,5.08
2023-01-18T00:16:18.788Z,4.83
2023-01-18T00:18:54.987Z,5.13
2023-01-18T00:21:24.547Z,4.22
2023-01-18T00:23:54.475Z,4.91
2023-01-18T00:26:24.904Z,5.08
2023-01-18T00:28:53.903Z,4.80
2023-01-18T00:31:23.092Z,4.61
2023-01-18T00:33:52.372Z,5.07
2023-01-18T00:36:22.199Z,5.00
2023-01-18T00:38:52.992Z,4.96
2023-01-18T00:41:24.343Z,4.90
2023-01-18T00:43:53.355Z,3.92
2023-01-18T00:46:23.672Z,4.97
2023-01-18T00:48:54.768Z,4.99
2023-01-18T00:51:26.833Z,5.01
2023-01-18T00:53:55.759Z,4.99
2023-01-18T00:56:26.018Z,5.02
2023-01-18T00:58:59.104Z,4.69
2023-01-18T01:01:30.114Z,4.94
2023-01-18T01:04:16.435Z,3.98
2023-01-18T01:06:46.739Z,4.48
2023-01-18T01:09:19.534Z,4.11
2023-01-18T01:12:07.987Z,4.84
2023-01-18T01:14:56.524Z,4.40
2023-01-18T01:17:45.235Z,3.22
2023-01-18T01:20:33.937Z,3.96
2023-01-18T01:23:28.407Z,4.67
2023-01-18T01:26:11.218Z,4.65
2023-01-18T01:28:43.675Z,4.69
2023-01-18T01:31:14.696Z,3.76
2023-01-18T01:33:46.326Z,4.72
2023-01-18T01:36:22.387Z,3.74
2023-01-18T01:38:51.334Z,4.70
2023-01-18T01:41:25.782Z,4.76
2023-01-18T01:43:58.465Z,4.78
2023-01-18T01:46:36.984Z,4.69
2023-01-18T01:49:11.558Z,3.61
2023-01-18T01:51:46.460Z,4.79
2023-01-18T01:54:19.952Z,4.80
2023-01-18T01:56:54.817Z,3.91
2023-01-18T01:59:26.024Z,4.13
2023-01-18T02:01:55.149Z,3.21
2023-01-18T02:04:25.297Z,2.01
2023-01-18T02:06:54.424Z,4.26
2023-01-18T02:09:25.042Z,4.30
2023-01-18T02:11:55.976Z,3.19
2023-01-18T02:14:29.103Z,3.93
2023-01-18T02:17:09.280Z,4.70
2023-01-18T02:20:04.927Z,4.72
2023-01-18T02:22:56.606Z,4.49
2023-01-18T02:25:51.551Z,4.74
2023-01-18T02:28:28.524Z,4.76
2023-01-18T02:31:04.703Z,4.67
2023-01-18T02:33:40.389Z,4.36
2023-01-18T02:36:09.546Z,4.70
2023-01-18T02:38:44.640Z,4.72
2023-01-18T02:41:20.601Z,4.73
2023-01-18T02:44:13.880Z,4.74
2023-01-18T02:46:45.059Z,4.65
2023-01-18T02:49:22.052Z,4.40
2023-01-18T02:51:52.170Z,4.37
2023-01-18T02:54:24.827Z,4.67
2023-01-18T02:56:55.692Z,4.66
2023-01-18T02:59:36.998Z,3.89
2023-01-18T03:02:12.990Z,4.30
2023-01-18T03:04:45.343Z,4.51
2023-01-18T03:07:22.411Z,4.49
2023-01-18T03:09:54.489Z,3.36
2023-01-18T03:12:28.856Z,3.92
2023-01-18T03:15:09.596Z,4.35
2023-01-18T03:17:44.184Z,4.19
2023-01-18T03:20:18.863Z,4.04
2023-01-18T03:23:10.428Z,4.29
2023-01-18T03:25:43.091Z,4.23
2023-01-18T03:28:34.140Z,4.05
2023-01-18T03:31:26.375Z,2.45
2023-01-18T03:34:50.617Z,2.93
2023-01-18T03:45:17.287Z,1.91
2023-01-18T03:47:51.429Z,3.52
2023-01-18T03:50:21.824Z,3.56
2023-01-18T03:52:59.289Z,3.15
2023-01-18T03:55:40.781Z,3.53
2023-01-18T03:58:12.655Z,3.35
2023-01-18T04:00:42.624Z,3.41
2023-01-18T04:03:16.806Z,0.94
2023-01-18T04:05:45.926Z,2.89
2023-01-18T04:12:04.055Z,3.04
2023-01-18T04:19:33.830Z,2.80
2023-01-18T04:22:09.928Z,2.62
2023-01-18T04:24:41.684Z,2.14
2023-01-18T04:27:18.525Z,2.29
2023-01-18T04:29:48.431Z,2.51
2023-01-18T04:32:20.118Z,2.42
2023-01-18T04:34:51.477Z,1.42
2023-01-18T04:37:20.330Z,1.73
2023-01-18T04:39:50.279Z,2.22
2023-01-18T04:42:20.158Z,1.16
2023-01-18T04:44:50.049Z,1.89
2023-01-18T04:47:20.114Z,2.14
2023-01-18T04:49:50.583Z,2.13
2023-01-18T04:52:20.439Z,1.41
2023-01-18T04:54:49.337Z,2.02
2023-01-18T04:57:18.261Z,2.13
2023-01-18T05:03:59.513Z,1.88
2023-01-18T05:06:29.878Z,2.33
2023-01-18T05:08:58.776Z,1.78
2023-01-18T05:11:28.946Z,2.24
2023-01-18T05:13:58.846Z,2.25
2023-01-18T05:16:28.144Z,2.30
2023-01-18T05:18:57.304Z,2.40
2023-01-18T05:21:26.118Z,2.05
2023-01-18T05:23:56.529Z,2.44
2023-01-18T05:26:26.085Z,1.49
2023-01-18T05:28:58.804Z,2.20
2023-01-18T05:31:27.855Z,2.43
2023-01-18T05:33:58.143Z,2.39
2023-01-18T05:36:26.897Z,2.36
2023-01-18T05:38:57.542Z,2.38
2023-01-18T05:41:26.500Z,1.06
2023-01-18T05:43:55.337Z,2.44
2023-01-18T05:46:24.491Z,2.51
2023-01-18T05:48:57.104Z,2.57
2023-01-18T05:51:26.859Z,2.54
2023-01-18T05:53:57.163Z,0.93
2023-01-18T05:56:26.109Z,2.42
2023-01-18T05:58:55.091Z,2.01
2023-01-18T06:01:25.075Z,2.29
2023-01-18T06:03:54.061Z,2.30
2023-01-18T06:06:22.995Z,1.95
2023-01-18T06:08:54.280Z,2.19
2023-01-18T06:11:25.747Z,2.11
2023-01-18T06:13:56.652Z,1.28
2023-01-18T06:16:25.939Z,1.94
2023-01-18T06:18:55.785Z,1.95
2023-01-18T06:21:24.657Z,1.79
2023-01-18T06:23:53.581Z,2.03
2023-01-18T06:26:24.112Z,2.04
2023-01-18T06:28:54.725Z,-0.12
2023-01-18T06:31:23.601Z,2.09
2023-01-18T06:33:53.538Z,2.15
2023-01-18T06:36:22.350Z,2.01
2023-01-18T06:38:52.351Z,2.15
2023-01-18T06:41:22.184Z,1.88
2023-01-18T06:43:53.747Z,1.83
2023-01-18T06:46:27.502Z,0.93
2023-01-18T06:48:57.636Z,1.17
2023-01-18T06:51:28.651Z,1.45
2023-01-18T06:53:58.656Z,1.30
2023-01-18T06:56:38.774Z,1.53
2023-01-18T06:59:10.678Z,1.53
2023-01-18T07:01:39.698Z,1.58
2023-01-18T07:04:09.944Z,1.43
2023-01-18T07:06:45.292Z,0.82
2023-01-18T07:09:16.301Z,1.60
2023-01-18T07:11:56.432Z,1.78
2023-01-18T07:14:27.813Z,1.66
2023-01-18T07:16:58.680Z,1.70
2023-01-18T07:19:27.847Z,1.63
2023-01-18T07:22:02.991Z,1.58
2023-01-18T07:24:31.968Z,1.34
2023-01-18T07:27:03.534Z,0.71
2023-01-18T07:29:34.939Z,-0.41
2023-01-18T07:32:05.187Z,1.67
2023-01-18T07:34:36.316Z,0.80
2023-01-18T07:37:10.326Z,1.23
2023-01-18T07:39:40.260Z,1.68
2023-01-18T07:42:10.084Z,1.72
2023-01-18T07:44:41.438Z,1.70
2023-01-18T07:47:11.367Z,1.33
2023-01-18T07:49:41.577Z,0.70
2023-01-18T07:52:11.367Z,0.18
2023-01-18T07:54:40.654Z,1.48
2023-01-18T07:57:10.639Z,-0.03
2023-01-18T07:59:43.018Z,1.54
2023-01-18T08:02:14.664Z,1.45
2023-01-18T08:04:45.902Z,0.78
2023-01-18T08:07:15.968Z,1.84
2023-01-18T08:09:46.169Z,2.05
2023-01-18T08:12:18.943Z,2.65
2023-01-18T08:14:50.395Z,3.53
2023-01-18T08:17:20.498Z,3.96
2023-01-18T08:19:52.741Z,4.13
2023-01-18T08:22:21.685Z,5.26
2023-01-18T08:24:51.569Z,5.63
2023-01-18T08:27:22.838Z,5.45
2023-01-18T08:29:55.356Z,6.27
2023-01-18T08:32:24.952Z,6.46
2023-01-18T08:34:54.817Z,6.51
2023-01-18T08:37:25.928Z,6.40
2023-01-18T08:39:56.130Z,6.32
2023-01-18T08:42:26.110Z,5.53
2023-01-18T08:44:56.742Z,4.94
2023-01-18T08:47:32.772Z,6.32
2023-01-18T08:50:02.791Z,5.98
2023-01-18T08:52:36.762Z,6.08
2023-01-18T08:55:08.946Z,5.81
2023-01-18T08:57:40.405Z,6.17
2023-01-18T09:00:13.372Z,6.27
2023-01-18T09:02:42.591Z,6.08
2023-01-18T09:05:12.727Z,5.87
2023-01-18T09:07:41.899Z,6.19
2023-01-18T09:10:12.422Z,5.77
2023-01-18T09:12:41.653Z,6.43
2023-01-18T09:15:12.295Z,6.58
2023-01-18T09:17:41.335Z,6.74
2023-01-18T09:20:12.334Z,6.15
2023-01-18T09:22:43.116Z,6.85
2023-01-18T09:25:12.270Z,6.61
2023-01-18T09:27:41.136Z,7.33
2023-01-18T09:30:12.988Z,6.90
2023-01-18T09:32:42.969Z,7.49
2023-01-18T09:35:12.091Z,7.58
2023-01-18T09:37:40.946Z,7.67
2023-01-18T09:40:17.328Z,7.75
2023-01-18T09:42:48.871Z,7.80
2023-01-18T09:45:31.407Z,6.95
2023-01-18T09:48:04.207Z,7.98
2023-01-18T09:50:43.165Z,8.11
2023-01-18T09:53:25.124Z,8.25
2023-01-18T09:55:58.357Z,8.35
2023-01-18T09:58:42.902Z,8.39
2023-01-18T10:01:17.722Z,8.15
2023-01-18T10:03:51.986Z,7.69
2023-01-18T10:06:25.793Z,8.49
2023-01-18T10:09:01.354Z,8.44
2023-01-18T10:11:37.020Z,8.28
2023-01-18T10:14:10.855Z,8.17
2023-01-18T10:16:41.954Z,8.13
2023-01-18T10:19:17.190Z,8.08
2023-01-18T10:21:54.314Z,6.86
2023-01-18T10:24:32.302Z,8.08
2023-01-18T10:27:18.144Z,8.12
2023-01-18T10:30:01.815Z,8.16
2023-01-18T10:32:36.537Z,8.21
2023-01-18T10:35:16.688Z,8.30
2023-01-18T10:37:46.906Z,8.43
2023-01-18T10:40:17.033Z,8.58
2023-01-18T10:42:47.659Z,8.71
2023-01-18T10:45:21.881Z,8.85
2023-01-18T10:47:53.455Z,8.95
2023-01-18T10:50:24.872Z,8.41
2023-01-18T10:52:53.875Z,8.99
2023-01-18T10:55:23.175Z,9.12
2023-01-18T10:57:54.442Z,9.14
2023-01-18T11:00:27.896Z,9.13
2023-01-18T11:03:00.302Z,9.12
2023-01-18T11:05:32.434Z,9.21
2023-01-18T11:08:22.124Z,9.25
2023-01-18T11:11:00.898Z,9.09
2023-01-18T11:13:34.168Z,8.85
2023-01-18T11:16:15.916Z,9.03
2023-01-18T11:19:03.948Z,9.07
2023-01-18T11:21:46.269Z,9.01
2023-01-18T11:24:18.868Z,9.07
2023-01-18T11:27:02.429Z,8.74
2023-01-18T11:29:34.628Z,7.91
2023-01-18T11:32:05.541Z,8.90
2023-01-18T11:34:38.525Z,8.95
2023-01-18T11:37:31.115Z,8.94
2023-01-18T11:40:00.715Z,8.80
2023-01-18T11:42:32.247Z,8.79
2023-01-18T11:45:22.629Z,8.73
2023-01-18T11:47:59.249Z,8.63
2023-01-18T11:50:36.138Z,8.35
2023-01-18T11:53:15.394Z,8.68
2023-01-18T11:55:56.380Z,8.69
2023-01-18T12:03:45.024Z,8.59
2023-01-18T12:06:27.481Z,8.57
2023-01-18T12:09:14.766Z,8.56
2023-01-18T12:12:17.358Z,8.27
2023-01-18T12:15:16.979Z,8.45
2023-01-18T12:18:12.489Z,8.38
2023-01-18T12:20:54.026Z,8.25
2023-01-18T12:23:46.672Z,7.61
2023-01-18T12:26:32.260Z,8.19
2023-01-18T12:29:18.060Z,8.15
2023-01-18T12:31:58.797Z,7.90
2023-01-18T12:34:36.293Z,8.18
2023-01-18T12:37:23.423Z,8.17
2023-01-18T12:40:06.679Z,8.16
2023-01-18T12:42:47.931Z,7.71
2023-01-18T12:45:29.074Z,6.92
2023-01-18T12:48:11.225Z,7.70
2023-01-18T12:50:43.753Z,8.02
2023-01-18T12:53:16.709Z,7.97
2023-01-18T12:55:51.418Z,8.18
2023-01-18T12:58:23.932Z,8.08
2023-01-18T13:00:59.943Z,6.95
2023-01-18T13:03:36.905Z,8.12
2023-01-18T13:06:06.096Z,8.10
2023-01-18T13:08:44.437Z,7.95
2023-01-18T13:11:18.705Z,7.57
2023-01-18T13:13:51.983Z,7.98
2023-01-18T13:16:38.038Z,8.20
2023-01-18T13:19:10.702Z,7.78
2023-01-18T13:21:49.895Z,8.23
2023-01-18T13:24:31.381Z,8.23
2023-01-18T13:27:13.530Z,8.21
2023-01-18T13:29:44.087Z,8.20
2023-01-18T13:32:30.542Z,8.19
2023-01-18T13:35:19.013Z,7.74
2023-01-18T13:46:05.963Z,6.24
2023-01-18T13:48:47.576Z,7.89
2023-01-18T13:51:52.289Z,7.95
2023-01-18T13:55:05.609Z,7.85
2023-01-18T13:57:36.774Z,7.81
2023-01-18T14:00:07.742Z,7.81
2023-01-18T14:02:43.657Z,7.79
2023-01-18T14:05:25.072Z,7.76
2023-01-18T14:07:57.690Z,7.77
2023-01-18T14:10:31.974Z,7.48
2023-01-18T14:13:03.147Z,6.95
2023-01-18T14:15:48.538Z,7.66
2023-01-18T14:18:25.203Z,7.56
2023-01-18T14:21:11.333Z,7.45
2023-01-18T14:24:02.445Z,7.53
2023-01-18T14:26:34.715Z,7.07
2023-01-18T14:29:07.395Z,7.44
2023-01-18T14:31:40.326Z,7.44
2023-01-18T14:34:38.188Z,6.97
2023-01-18T14:37:29.042Z,7.28
2023-01-18T14:40:15.359Z,4.44
2023-01-18T14:42:50.458Z,7.19
2023-01-18T14:45:27.636Z,6.69
2023-01-18T14:47:57.654Z,7.15
2023-01-18T14:50:33.613Z,7.24
2023-01-18T14:53:03.223Z,7.28
2023-01-18T14:55:33.979Z,7.22
2023-01-18T14:58:05.895Z,5.60
2023-01-18T15:00:34.943Z,7.18
2023-01-18T15:03:03.909Z,7.12
2023-01-18T15:05:34.406Z,7.01
2023-01-18T15:08:03.412Z,6.98
2023-01-18T15:10:35.641Z,6.92
2023-01-18T15:13:06.391Z,6.82
2023-01-18T15:15:41.068Z,6.82
2023-01-18T15:18:17.194Z,6.80
2023-01-18T15:20:57.141Z,6.76
2023-01-18T15:23:28.237Z,6.73
2023-01-18T15:25:59.135Z,6.60
2023-01-18T15:28:34.391Z,6.67
2023-01-18T15:31:13.144Z,6.64
2023-01-18T15:33:42.558Z,5.17
2023-01-18T15:36:14.440Z,6.53
2023-01-18T15:38:44.093Z,6.24
2023-01-18T15:41:16.101Z,6.36
2023-01-18T15:43:49.112Z,6.37
2023-01-18T15:46:19.511Z,6.32
2023-01-18T15:48:51.815Z,6.29
2023-01-18T15:51:42.897Z,6.23
2023-01-18T15:54:19.339Z,6.16
2023-01-18T15:56:49.592Z,6.09
2023-01-18T15:59:23.302Z,6.05
2023-01-18T16:02:19.391Z,6.04
2023-01-18T16:04:48.602Z,5.85
2023-01-18T16:07:43.399Z,5.94
2023-01-18T16:10:30.666Z,5.58
2023-01-18T16:13:33.657Z,5.85
2023-01-18T16:16:14.503Z,5.78
2023-01-18T16:18:46.517Z,5.06
2023-01-18T16:21:22.406Z,5.48
2023-01-18T16:23:54.229Z,4.91
2023-01-18T16:26:29.042Z,4.82
2023-01-18T16:29:07.598Z,4.94
2023-01-18T16:31:37.483Z,5.48
2023-01-18T16:34:20.495Z,5.43
2023-01-18T16:36:49.941Z,5.33
2023-01-18T16:39:20.692Z,5.28
2023-01-18T16:41:54.915Z,5.24
2023-01-18T16:44:24.063Z,4.99
2023-01-18T16:46:54.066Z,4.98
2023-01-18T16:49:23.009Z,4.92
2023-01-18T16:51:51.940Z,3.58
2023-01-18T16:54:23.681Z,4.57
2023-01-18T16:56:52.691Z,4.61
2023-01-18T16:59:23.536Z,4.65
2023-01-18T17:01:53.158Z,3.92
2023-01-18T17:04:22.130Z,4.34
2023-01-18T17:06:51.102Z,4.45
2023-01-18T17:09:28.108Z,4.33
2023-01-18T17:12:00.032Z,4.41
2023-01-18T17:14:29.054Z,2.06
2023-01-18T17:16:58.048Z,4.24
2023-01-18T17:19:29.205Z,4.09
2023-01-18T17:21:59.140Z,4.40
2023-01-18T17:24:32.929Z,3.91
2023-01-18T17:27:10.477Z,4.08
2023-01-18T17:29:39.683Z,3.25
2023-01-18T17:32:08.629Z,4.03
2023-01-18T17:34:37.677Z,3.75
2023-01-18T17:37:10.999Z,3.87
2023-01-18T17:39:49.799Z,2.53
2023-01-18T17:42:30.233Z,1.95
2023-01-18T17:45:04.497Z,3.08
2023-01-18T17:47:39.129Z,3.75
2023-01-18T17:50:11.661Z,3.70
2023-01-18T17:52:43.781Z,2.64
2023-01-18T17:55:17.900Z,3.60
2023-01-18T17:57:50.097Z,3.16
2023-01-18T18:00:21.934Z,3.53
2023-01-18T18:02:57.237Z,3.41
2023-01-18T18:05:26.897Z,3.48
2023-01-18T18:07:57.019Z,3.48
2023-01-18T18:10:29.244Z,3.50
2023-01-18T18:12:59.977Z,3.01
2023-01-18T18:15:30.357Z,3.39
2023-01-18T18:18:01.042Z,3.27
2023-01-18T18:20:32.330Z,3.23
2023-01-18T18:23:02.354Z,2.52
2023-01-18T18:25:34.823Z,3.43
2023-01-18T18:28:05.009Z,3.22
2023-01-18T18:30:35.927Z,3.41
2023-01-18T18:33:04.888Z,3.47
2023-01-18T18:35:35.012Z,3.51
2023-01-18T18:38:03.963Z,3.55
2023-01-18T18:40:35.436Z,3.50
2023-01-18T18:43:05.554Z,3.51
2023-01-18T18:45:36.018Z,3.55
2023-01-18T18:48:06.530Z,3.57
2023-01-18T18:50:35.739Z,3.55
2023-01-18T18:53:09.657Z,2.70
2023-01-18T18:55:41.293Z,3.54
2023-01-18T18:58:17.459Z,2.56
2023-01-18T19:00:47.601Z,2.51
2023-01-18T19:03:17.676Z,3.46
2023-01-18T19:05:46.840Z,3.18
2023-01-18T19:08:15.699Z,3.04
2023-01-18T19:10:50.034Z,2.98
2023-01-18T19:13:21.119Z,2.93
2023-01-18T19:15:53.337Z,3.32
2023-01-18T19:18:30.595Z,1.85
2023-01-18T19:21:01.861Z,2.62
2023-01-18T19:23:30.841Z,2.54
2023-01-18T19:26:02.169Z,3.20
2023-01-18T19:28:31.141Z,2.82
2023-01-18T19:31:07.070Z,3.19
2023-01-18T19:33:37.014Z,3.06
2023-01-18T19:36:13.246Z,2.91
2023-01-18T19:38:46.445Z,1.46
2023-01-18T19:41:19.225Z,1.70
2023-01-18T19:43:51.332Z,3.01
2023-01-18T19:46:21.374Z,2.86
2023-01-18T19:48:51.505Z,1.36
2023-01-18T19:51:22.869Z,2.18
2023-01-18T19:53:53.681Z,3.03
2023-01-18T19:56:28.287Z,2.86
2023-01-18T19:58:57.499Z,1.66
2023-01-18T20:01:36.260Z,2.94
2023-01-18T20:04:07.069Z,2.83
2023-01-18T20:06:39.803Z,2.20
2023-01-18T20:09:18.961Z,2.95
2023-01-18T20:11:52.133Z,2.90
2023-01-18T20:14:26.266Z,2.43
2023-01-18T20:17:00.698Z,2.81
2023-01-18T20:19:30.717Z,2.87
2023-01-18T20:22:04.847Z,2.86
2023-01-18T20:24:34.923Z,2.91
2023-01-18T20:27:15.800Z,2.71
2023-01-18T20:29:46.716Z,2.91
2023-01-18T20:32:18.504Z,1.86
2023-01-18T20:34:48.911Z,2.31
2023-01-18T20:37:18.282Z,2.71
2023-01-18T20:39:50.426Z,2.01
2023-01-18T20:42:20.845Z,1.48
2023-01-18T20:44:54.000Z,2.17
2023-01-18T20:47:23.861Z,2.77
2023-01-18T20:49:53.855Z,2.57
2023-01-18T20:52:26.967Z,2.86
2023-01-18T20:54:57.262Z,2.86
2023-01-18T20:57:31.723Z,2.67
2023-01-18T21:00:01.872Z,1.43
2023-01-18T21:02:32.901Z,2.63
2023-01-18T21:05:02.016Z,2.56
2023-01-18T21:07:32.953Z,2.40
2023-01-18T21:10:01.944Z,1.94
2023-01-18T21:12:36.278Z,2.74
2023-01-18T21:15:09.329Z,2.63
2023-01-18T21:17:39.914Z,1.31
2023-01-18T21:20:10.127Z,1.76
2023-01-18T21:22:41.422Z,2.02
2023-01-18T21:25:11.824Z,1.38
2023-01-18T21:27:44.428Z,2.37
2023-01-18T21:30:15.736Z,1.02
2023-01-18T21:32:45.183Z,2.44
2023-01-18T21:35:15.507Z,2.45
2023-01-18T21:37:47.186Z,2.05
2023-01-18T21:40:17.331Z,2.39
2023-01-18T21:43:13.760Z,2.32
2023-01-18T21:45:58.498Z,1.44
2023-01-18T21:48:30.725Z,2.19
2023-01-18T21:51:19.399Z,2.06
2023-01-18T21:54:06.642Z,1.89
2023-01-18T21:56:38.857Z,1.83
2023-01-18T21:59:12.147Z,1.77
2023-01-18T22:01:44.533Z,1.62
2023-01-18T22:04:33.875Z,0.50
2023-01-18T22:07:07.706Z,0.56
2023-01-18T22:09:39.317Z,0.52
2023-01-18T22:12:15.236Z,1.22
2023-01-18T22:14:45.883Z,1.23
2023-01-18T22:17:22.370Z,0.39
2023-01-18T22:19:52.295Z,0.94
2023-01-18T22:22:23.207Z,0.77
2023-01-18T22:24:53.196Z,0.42
2023-01-18T22:27:23.093Z,0.81
2023-01-18T22:29:54.700Z,-0.43
2023-01-18T22:32:25.267Z,0.36
2023-01-18T22:34:55.319Z,-0.23
2023-01-18T22:37:27.971Z,-0.52
2023-01-18T22:39:57.975Z,0.44
2023-01-18T22:42:29.082Z,0.18
2023-01-18T22:45:00.605Z,0.47
2023-01-18T22:47:31.981Z,0.43
2023-01-18T22:50:09.369Z,0.40
2023-01-18T22:52:39.374Z,0.39
2023-01-18T22:55:16.141Z,0.25
2023-01-18T22:57:45.185Z,0.25
2023-01-18T23:00:19.686Z,0.27
2023-01-18T23:02:49.831Z,0.07
2023-01-18T23:05:19.832Z,-0.10
2023-01-18T23:07:49.753Z,-0.14
2023-01-18T23:10:18.683Z,-0.50
2023-01-18T23:12:49.169Z,-0.23
2023-01-18T23:15:42.743Z,-2.17
2023-01-18T23:18:19.727Z,-0.14
2023-01-18T23:20:59.056Z,-0.93
2023-01-18T23:23:33.596Z,-0.19
2023-01-18T23:26:03.806Z,-0.25
2023-01-18T23:28:42.656Z,-0.92
2023-01-18T23:31:14.910Z,-1.25
2023-01-18T23:33:44.974Z,-0.30
2023-01-18T23:36:15.889Z,-1.25
2023-01-18T23:39:09.336Z,-0.44
2023-01-18T23:41:56.389Z,-1.57
2023-01-18T23:44:44.048Z,-1.13
2023-01-18T23:47:34.192Z,-1.59
2023-01-18T23:50:22.198Z,-0.62
2023-01-18T23:53:09.333Z,-0.58
2023-01-18T23:55:44.541Z,-0.76
2023-01-18T23:58:14.547Z,-0.89
